createdAt,value
2022-08-25T00:00:24.982Z,25.72
2022-08-25T00:02:57.691Z,25.72
2022-08-25T00:05:29.417Z,25.72
2022-08-25T00:07:59.999Z,25.73
2022-08-25T00:10:29.901Z,25.73
2022-08-25T00:12:59.374Z,25.73
2022-08-25T00:15:32.021Z,25.72
2022-08-25T00:18:02.298Z,25.72
2022-08-25T00:20:32.007Z,25.73
2022-08-25T00:23:01.953Z,25.73
2022-08-25T00:25:31.640Z,25.72
2022-08-25T00:28:07.787Z,25.72
2022-08-25T00:30:36.802Z,25.72
2022-08-25T00:33:06.532Z,25.73
2022-08-25T00:35:36.371Z,25.71
2022-08-25T00:38:06.218Z,25.72
2022-08-25T00:40:36.061Z,25.71
2022-08-25T00:43:06.852Z,25.70
2022-08-25T00:45:36.568Z,25.69
2022-08-25T00:48:09.123Z,25.69
2022-08-25T00:50:38.637Z,25.63
2022-08-25T00:53:09.046Z,25.61
2022-08-25T00:55:43.070Z,25.62
2022-08-25T00:58:14.828Z,25.64
2022-08-25T01:00:46.576Z,25.64
2022-08-25T01:03:16.964Z,25.66
2022-08-25T01:05:47.508Z,25.67
2022-08-25T01:08:19.829Z,25.66
2022-08-25T01:10:50.452Z,25.64
2022-08-25T01:13:24.402Z,25.58
2022-08-25T01:15:56.663Z,25.59
2022-08-25T01:18:26.419Z,25.61
2022-08-25T01:21:00.461Z,25.62
2022-08-25T01:23:30.084Z,25.64
2022-08-25T01:26:08.446Z,25.64
2022-08-25T01:28:38.143Z,25.63
2022-08-25T01:31:23.831Z,25.55
2022-08-25T01:33:40.450Z,25.56
2022-08-25T01:36:10.412Z,25.58
2022-08-25T01:38:45.067Z,25.60
2022-08-25T01:41:14.855Z,25.62
2022-08-25T01:43:46.416Z,25.64
2022-08-25T01:46:17.107Z,25.59
2022-08-25T01:48:47.091Z,25.59
2022-08-25T01:51:21.069Z,25.61
2022-08-25T01:53:51.823Z,25.63
2022-08-25T01:56:21.365Z,25.63
2022-08-25T01:58:51.178Z,25.65
2022-08-25T02:01:23.554Z,25.62
2022-08-25T02:03:54.255Z,25.60
2022-08-25T02:06:30.200Z,25.62
2022-08-25T02:09:02.084Z,25.64
2022-08-25T02:11:31.760Z,25.65
2022-08-25T02:14:01.665Z,25.65
2022-08-25T02:16:35.700Z,25.61
2022-08-25T02:19:07.461Z,25.53
2022-08-25T02:21:36.960Z,25.49
2022-08-25T02:24:07.594Z,25.53
2022-08-25T02:26:37.168Z,25.56
2022-08-25T02:29:08.066Z,25.57
2022-08-25T02:31:37.774Z,25.58
2022-08-25T02:34:07.503Z,25.59
2022-08-25T02:36:37.145Z,25.57
2022-08-25T02:39:48.871Z,25.50
2022-08-25T02:42:07.761Z,25.49
2022-08-25T02:44:37.239Z,25.53
2022-08-25T02:47:08.428Z,25.55
2022-08-25T02:49:38.049Z,25.55
2022-08-25T02:52:07.799Z,25.57
2022-08-25T02:54:37.511Z,25.57
2022-08-25T02:57:07.322Z,25.56
2022-08-25T02:59:36.978Z,25.48
2022-08-25T03:02:06.941Z,25.46
2022-08-25T03:04:36.846Z,25.49
2022-08-25T03:07:09.701Z,25.51
2022-08-25T03:09:46.753Z,25.52
2022-08-25T03:12:17.835Z,25.54
2022-08-25T03:14:48.152Z,25.54
2022-08-25T03:17:18.303Z,25.55
2022-08-25T03:19:48.746Z,25.57
2022-08-25T03:22:19.349Z,25.54
2022-08-25T03:24:49.322Z,25.59
2022-08-25T03:27:19.319Z,25.58
2022-08-25T03:29:50.263Z,25.59
2022-08-25T03:32:22.652Z,25.61
2022-08-25T03:34:52.303Z,25.62
2022-08-25T03:37:22.036Z,25.63
2022-08-25T03:39:52.016Z,25.63
2022-08-25T03:42:21.702Z,25.64
2022-08-25T03:44:51.528Z,25.66
2022-08-25T03:47:21.635Z,25.67
2022-08-25T03:49:52.392Z,25.68
2022-08-25T03:52:21.907Z,25.68
2022-08-25T03:54:51.428Z,25.69
2022-08-25T03:57:21.542Z,25.57
2022-08-25T03:59:51.589Z,25.70
2022-08-25T04:02:21.628Z,25.71
2022-08-25T04:04:51.585Z,25.72
2022-08-25T04:07:22.735Z,25.72
2022-08-25T04:09:52.470Z,25.73
2022-08-25T04:12:22.129Z,25.73
2022-08-25T04:14:52.492Z,25.75
2022-08-25T04:17:22.621Z,25.75
2022-08-25T04:19:52.685Z,25.76
2022-08-25T04:22:23.677Z,25.77
2022-08-25T04:24:53.280Z,25.77
2022-08-25T04:27:22.857Z,25.79
2022-08-25T04:29:52.369Z,25.79
2022-08-25T04:32:22.524Z,25.79
2022-08-25T04:34:52.660Z,25.80
2022-08-25T04:37:22.192Z,25.81
2022-08-25T04:39:51.856Z,25.81
2022-08-25T04:42:22.418Z,25.82
2022-08-25T04:44:51.943Z,25.83
2022-08-25T04:47:21.791Z,25.84
2022-08-25T04:49:53.067Z,25.83
2022-08-25T04:52:22.601Z,25.85
2022-08-25T04:54:52.414Z,25.85
2022-08-25T04:57:22.088Z,25.86
2022-08-25T04:59:51.829Z,25.86
2022-08-25T05:02:21.593Z,25.88
2022-08-25T05:04:51.656Z,25.87
2022-08-25T05:07:21.567Z,25.89
2022-08-25T05:09:51.688Z,25.90
2022-08-25T05:12:21.732Z,25.90
2022-08-25T05:14:53.023Z,25.90
2022-08-25T05:17:22.658Z,25.91
2022-08-25T05:19:52.190Z,25.92
2022-08-25T05:22:22.073Z,25.94
2022-08-25T05:24:51.894Z,25.94
2022-08-25T05:27:21.979Z,25.95
2022-08-25T05:29:51.630Z,25.95
2022-08-25T05:32:21.853Z,25.96
2022-08-25T05:34:52.054Z,25.97
2022-08-25T05:37:21.602Z,25.97
2022-08-25T05:39:51.391Z,25.97
2022-08-25T05:42:23.209Z,25.98
2022-08-25T05:44:52.870Z,25.96
2022-08-25T05:47:22.382Z,25.99
2022-08-25T05:49:51.927Z,25.99
2022-08-25T05:52:21.639Z,26.00
2022-08-25T05:54:51.658Z,26.00
2022-08-25T05:57:21.698Z,26.01
2022-08-25T05:59:51.955Z,26.01
2022-08-25T06:02:39.472Z,26.01
2022-08-25T06:05:09.969Z,26.01
2022-08-25T06:07:39.475Z,26.03
2022-08-25T06:10:11.014Z,26.04
2022-08-25T06:12:40.810Z,26.03
2022-08-25T06:15:14.313Z,26.04
2022-08-25T06:17:44.016Z,26.05
2022-08-25T06:20:16.691Z,26.04
2022-08-25T06:22:46.196Z,26.04
2022-08-25T06:25:16.843Z,26.06
2022-08-25T06:27:46.604Z,26.05
2022-08-25T06:30:24.623Z,26.06
2022-08-25T06:32:53.132Z,26.07
2022-08-25T06:35:23.673Z,26.07
2022-08-25T06:37:53.288Z,26.08
2022-08-25T06:40:23.789Z,26.08
2022-08-25T06:42:53.945Z,26.08
2022-08-25T06:45:23.454Z,26.09
2022-08-25T06:47:53.149Z,26.10
2022-08-25T06:50:22.879Z,26.09
2022-08-25T06:52:52.602Z,26.09
2022-08-25T06:55:23.749Z,26.09
2022-08-25T06:57:55.276Z,26.10
2022-08-25T07:00:25.012Z,26.11
2022-08-25T07:02:56.269Z,26.11
2022-08-25T07:05:40.829Z,26.12
2022-08-25T07:07:57.251Z,26.11
2022-08-25T07:10:26.808Z,26.12
2022-08-25T07:12:59.810Z,26.12
2022-08-25T07:15:29.312Z,26.12
2022-08-25T07:17:59.872Z,26.13
2022-08-25T07:20:30.274Z,26.13
2022-08-25T07:23:03.065Z,26.13
2022-08-25T07:25:32.570Z,26.12
2022-08-25T07:28:02.158Z,26.14
2022-08-25T07:33:03.492Z,26.13
2022-08-25T07:35:37.675Z,26.14
2022-08-25T07:38:04.404Z,26.13
2022-08-25T07:40:38.534Z,26.14
2022-08-25T07:43:09.842Z,26.14
2022-08-25T07:48:12.417Z,26.15
2022-08-25T07:50:46.006Z,26.14
2022-08-25T07:53:16.671Z,26.16
2022-08-25T07:55:47.214Z,26.14
2022-08-25T07:58:18.917Z,26.15
2022-08-25T08:00:50.793Z,26.12
2022-08-25T08:03:42.294Z,26.15
2022-08-25T08:05:53.240Z,26.15
2022-08-25T08:08:22.819Z,26.15
2022-08-25T08:11:04.803Z,26.15
2022-08-25T08:13:24.669Z,26.15
2022-08-25T08:15:56.695Z,26.15
2022-08-25T08:18:26.566Z,26.15
2022-08-25T08:20:56.135Z,26.15
2022-08-25T08:23:27.100Z,26.15
2022-08-25T08:25:57.125Z,26.15
2022-08-25T08:28:28.577Z,26.15
2022-08-25T08:30:58.311Z,26.15
2022-08-25T08:33:27.832Z,26.15
2022-08-25T08:36:05.483Z,26.16
2022-08-25T08:38:36.345Z,26.15
2022-08-25T08:44:27.012Z,26.14
2022-08-25T08:47:08.872Z,26.15
2022-08-25T08:49:48.039Z,26.14
2022-08-25T08:52:18.931Z,26.03
2022-08-25T08:54:52.780Z,26.14
2022-08-25T08:57:23.840Z,26.14
2022-08-25T08:59:59.035Z,26.14
2022-08-25T09:02:39.256Z,26.14
2022-08-25T09:05:11.008Z,26.14
2022-08-25T09:07:56.201Z,26.14
2022-08-25T09:10:26.222Z,26.12
2022-08-25T09:13:11.309Z,26.14
2022-08-25T09:16:22.412Z,26.13
2022-08-25T09:18:54.824Z,26.13
2022-08-25T09:21:36.284Z,26.13
2022-08-25T09:24:36.122Z,26.12
2022-08-25T09:27:21.255Z,26.12
2022-08-25T09:30:07.716Z,26.12
2022-08-25T09:32:52.391Z,26.11
2022-08-25T09:35:25.118Z,26.11
2022-08-25T09:38:11.217Z,26.11
2022-08-25T09:40:42.969Z,26.10
2022-08-25T09:43:24.046Z,26.11
2022-08-25T09:45:59.383Z,26.11
2022-08-25T09:48:41.043Z,26.11
2022-08-25T09:51:27.461Z,26.09
2022-08-25T09:53:59.370Z,26.10
2022-08-25T09:56:32.540Z,26.11
2022-08-25T09:59:34.110Z,26.11
2022-08-25T10:01:57.968Z,26.10
2022-08-25T10:04:37.139Z,26.10
2022-08-25T10:07:28.228Z,26.10
2022-08-25T10:09:59.435Z,26.09
2022-08-25T10:12:42.692Z,26.09
2022-08-25T10:15:29.235Z,26.09
2022-08-25T10:17:53.248Z,26.09
2022-08-25T10:20:25.315Z,26.09
2022-08-25T10:22:55.530Z,26.09
2022-08-25T10:25:28.008Z,26.09
2022-08-25T10:28:15.702Z,26.09
2022-08-25T10:31:06.417Z,26.09
2022-08-25T10:33:50.422Z,26.08
2022-08-25T10:36:40.762Z,26.09
2022-08-25T10:39:34.283Z,26.08
2022-08-25T10:42:01.092Z,26.06
2022-08-25T10:44:54.728Z,26.08
2022-08-25T10:47:50.123Z,26.07
2022-08-25T10:50:49.015Z,26.06
2022-08-25T10:53:40.030Z,26.05
2022-08-25T10:56:24.409Z,26.05
2022-08-25T10:59:13.678Z,26.06
2022-08-25T11:02:13.488Z,26.04
2022-08-25T11:05:11.112Z,26.05
2022-08-25T11:07:49.825Z,26.04
2022-08-25T11:10:23.117Z,26.04
2022-08-25T11:12:57.472Z,26.04
2022-08-25T11:15:34.434Z,26.04
2022-08-25T11:18:14.614Z,26.04
2022-08-25T11:20:49.710Z,26.03
2022-08-25T11:23:29.139Z,26.03
2022-08-25T11:26:09.611Z,26.03
2022-08-25T11:28:58.155Z,26.02
2022-08-25T11:31:28.378Z,26.02
2022-08-25T11:33:57.979Z,26.02
2022-08-25T11:36:36.839Z,26.02
2022-08-25T11:39:32.495Z,26.02
2022-08-25T11:42:17.791Z,26.02
2022-08-25T11:44:53.580Z,26.02
2022-08-25T11:47:27.508Z,26.01
2022-08-25T11:50:11.037Z,26.01
2022-08-25T11:52:50.971Z,26.01
2022-08-25T11:55:42.112Z,26.00
2022-08-25T11:58:17.541Z,25.99
2022-08-25T12:00:49.416Z,26.00
2022-08-25T12:03:40.300Z,25.99
2022-08-25T12:06:28.000Z,25.99
2022-08-25T12:09:06.815Z,25.99
2022-08-25T12:11:47.953Z,25.98
2022-08-25T12:14:28.100Z,25.98
2022-08-25T12:17:04.195Z,25.94
2022-08-25T12:19:42.641Z,25.98
2022-08-25T12:22:15.192Z,25.97
2022-08-25T12:24:48.778Z,25.97
2022-08-25T12:27:33.622Z,25.96
2022-08-25T12:30:18.595Z,25.96
2022-08-25T12:33:19.625Z,25.95
2022-08-25T12:35:56.157Z,25.94
2022-08-25T12:38:50.882Z,25.93
2022-08-25T12:41:20.473Z,25.93
2022-08-25T12:43:52.120Z,25.92
2022-08-25T12:46:28.722Z,25.89
2022-08-25T12:49:05.935Z,25.90
2022-08-25T12:51:57.511Z,25.90
2022-08-25T12:54:40.090Z,25.90
2022-08-25T12:57:12.811Z,25.89
2022-08-25T12:59:48.766Z,25.88
2022-08-25T13:02:33.749Z,25.87
2022-08-25T13:05:23.048Z,25.74
2022-08-25T13:08:04.724Z,25.45
2022-08-25T13:10:46.044Z,25.35
2022-08-25T13:13:35.154Z,25.43
2022-08-25T13:16:08.860Z,25.49
2022-08-25T13:18:42.227Z,25.52
2022-08-25T13:21:20.282Z,25.54
2022-08-25T13:23:53.992Z,25.56
2022-08-25T13:26:32.394Z,25.57
2022-08-25T13:29:17.761Z,25.58
2022-08-25T13:32:01.018Z,25.59
2022-08-25T13:34:34.684Z,25.49
2022-08-25T13:37:32.767Z,25.38
2022-08-25T13:40:31.064Z,25.40
2022-08-25T13:43:03.418Z,25.45
2022-08-25T13:45:41.443Z,25.47
2022-08-25T13:48:06.753Z,25.49
2022-08-25T13:50:40.065Z,25.48
2022-08-25T13:53:16.857Z,25.50
2022-08-25T13:55:52.169Z,25.51
2022-08-25T13:58:38.594Z,25.50
2022-08-25T14:01:19.687Z,25.46
2022-08-25T14:03:39.848Z,25.39
2022-08-25T14:06:13.924Z,25.43
2022-08-25T14:08:54.776Z,25.28
2022-08-25T14:11:37.619Z,25.46
2022-08-25T14:14:10.539Z,25.46
2022-08-25T14:16:43.452Z,25.47
2022-08-25T14:19:19.819Z,25.47
2022-08-25T14:21:50.468Z,25.49
2022-08-25T14:24:24.323Z,25.50
2022-08-25T14:26:54.975Z,25.48
2022-08-25T14:29:24.746Z,25.36
2022-08-25T14:31:54.679Z,25.31
2022-08-25T14:34:26.270Z,25.36
2022-08-25T14:36:57.533Z,25.36
2022-08-25T14:39:29.924Z,25.38
2022-08-25T14:41:59.628Z,25.40
2022-08-25T14:44:30.292Z,25.40
2022-08-25T14:47:00.702Z,25.42
2022-08-25T14:49:34.583Z,25.43
2022-08-25T14:52:04.861Z,25.43
2022-08-25T14:54:37.574Z,25.38
2022-08-25T14:57:08.499Z,25.35
2022-08-25T14:59:43.065Z,25.35
2022-08-25T15:02:13.740Z,25.37
2022-08-25T15:04:49.219Z,25.37
2022-08-25T15:07:33.347Z,25.39
2022-08-25T15:10:03.250Z,25.39
2022-08-25T15:12:46.610Z,25.40
2022-08-25T15:15:04.126Z,25.37
2022-08-25T15:17:34.654Z,25.34
2022-08-25T15:20:06.723Z,25.36
2022-08-25T15:25:05.144Z,25.38
2022-08-25T15:27:34.730Z,25.39
2022-08-25T15:30:04.208Z,25.33
2022-08-25T15:32:33.830Z,25.34
2022-08-25T15:35:03.542Z,25.35
2022-08-25T15:37:34.154Z,25.37
2022-08-25T15:40:03.971Z,25.37
2022-08-25T15:42:35.291Z,25.36
2022-08-25T15:45:05.677Z,25.26
2022-08-25T15:47:35.804Z,25.26
2022-08-25T15:50:10.439Z,25.30
2022-08-25T15:52:47.579Z,25.32
2022-08-25T15:55:13.093Z,25.35
2022-08-25T15:57:42.765Z,25.35
2022-08-25T16:00:13.570Z,25.33
2022-08-25T16:02:44.713Z,25.29
2022-08-25T16:05:16.505Z,25.30
2022-08-25T16:07:51.514Z,25.33
2022-08-25T16:10:20.231Z,25.33
2022-08-25T16:12:50.952Z,25.34
2022-08-25T16:15:23.777Z,25.31
2022-08-25T16:17:53.141Z,25.28
2022-08-25T16:20:25.034Z,25.31
2022-08-25T16:22:54.617Z,25.33
2022-08-25T16:25:24.889Z,25.35
2022-08-25T16:27:54.485Z,25.35
2022-08-25T16:30:24.335Z,25.35
2022-08-25T16:32:54.093Z,25.35
2022-08-25T16:35:24.211Z,25.36
2022-08-25T16:37:53.701Z,25.38
2022-08-25T16:40:25.203Z,25.38
2022-08-25T16:42:55.985Z,25.36
2022-08-25T16:45:25.577Z,25.26
2022-08-25T16:47:56.658Z,25.28
2022-08-25T16:50:26.266Z,25.30
2022-08-25T16:53:15.165Z,25.33
2022-08-25T16:55:47.184Z,25.33
2022-08-25T16:58:16.596Z,25.32
2022-08-25T17:00:46.178Z,25.34
2022-08-25T17:03:17.348Z,25.35
2022-08-25T17:05:47.148Z,25.35
2022-08-25T17:08:31.243Z,25.37
2022-08-25T17:11:15.552Z,25.30
2022-08-25T17:13:46.686Z,25.30
2022-08-25T17:16:19.184Z,25.32
2022-08-25T17:18:50.251Z,25.34
2022-08-25T17:21:24.834Z,25.36
2022-08-25T17:23:53.653Z,25.35
2022-08-25T17:26:27.860Z,25.35
2022-08-25T17:28:54.967Z,25.37
2022-08-25T17:31:25.138Z,25.38
2022-08-25T17:33:54.746Z,25.38
2022-08-25T17:36:27.205Z,25.40
2022-08-25T17:38:57.284Z,25.39
2022-08-25T17:41:30.533Z,25.35
2022-08-25T17:44:00.081Z,25.35
2022-08-25T17:46:29.748Z,25.37
2022-08-25T17:48:59.317Z,25.38
2022-08-25T17:51:32.043Z,25.39
2022-08-25T17:54:01.574Z,25.37
2022-08-25T17:56:32.382Z,25.37
2022-08-25T17:59:02.602Z,25.39
2022-08-25T18:01:34.005Z,25.41
2022-08-25T18:04:04.082Z,25.41
2022-08-25T18:06:34.290Z,25.41
2022-08-25T18:09:05.452Z,25.35
2022-08-25T18:11:35.704Z,25.36
2022-08-25T18:14:10.769Z,25.37
2022-08-25T18:16:40.183Z,25.38
2022-08-25T18:19:11.552Z,25.40
2022-08-25T18:21:43.389Z,25.36
2022-08-25T18:24:13.625Z,25.38
2022-08-25T18:26:43.279Z,25.39
2022-08-25T18:29:13.706Z,25.40
2022-08-25T18:31:43.938Z,25.41
2022-08-25T18:34:13.712Z,25.41
2022-08-25T18:36:43.224Z,25.40
2022-08-25T18:39:34.762Z,25.40
2022-08-25T18:42:04.752Z,25.41
2022-08-25T18:44:34.460Z,25.43
2022-08-25T18:47:07.677Z,25.44
2022-08-25T18:49:35.174Z,25.43
2022-08-25T18:52:05.175Z,25.40
2022-08-25T18:54:36.109Z,25.42
2022-08-25T18:57:08.283Z,25.43
2022-08-25T18:59:38.072Z,25.44
2022-08-25T19:02:08.150Z,25.43
2022-08-25T19:04:38.228Z,25.40
2022-08-25T19:07:09.656Z,25.43
2022-08-25T19:09:39.269Z,25.43
2022-08-25T19:12:11.839Z,25.45
2022-08-25T19:14:40.552Z,25.45
2022-08-25T19:17:10.479Z,25.46
2022-08-25T19:19:40.021Z,25.43
2022-08-25T19:22:38.117Z,25.43
2022-08-25T19:24:41.473Z,25.45
2022-08-25T19:27:12.970Z,25.46
2022-08-25T19:29:42.878Z,25.46
2022-08-25T19:32:12.642Z,25.46
2022-08-25T19:34:43.468Z,25.46
2022-08-25T19:37:13.566Z,25.47
2022-08-25T19:39:52.734Z,25.48
2022-08-25T19:42:36.819Z,25.48
2022-08-25T19:44:49.357Z,25.48
2022-08-25T19:47:21.827Z,25.45
2022-08-25T19:52:23.919Z,25.46
2022-08-25T19:54:55.172Z,25.49
2022-08-25T19:57:28.460Z,25.49
2022-08-25T19:59:56.502Z,25.49
2022-08-25T20:02:29.548Z,25.47
2022-08-25T20:05:00.216Z,25.48
2022-08-25T20:07:31.295Z,25.50
2022-08-25T20:10:01.195Z,25.51
2022-08-25T20:12:31.006Z,25.49
2022-08-25T20:15:00.708Z,25.49
2022-08-25T20:17:30.296Z,25.48
2022-08-25T20:20:01.557Z,25.49
2022-08-25T20:22:33.398Z,25.50
2022-08-25T20:25:13.201Z,25.50
2022-08-25T20:27:45.526Z,25.50
2022-08-25T20:30:20.010Z,25.48
2022-08-25T20:32:50.884Z,25.49
2022-08-25T20:35:21.656Z,25.51
2022-08-25T20:37:53.720Z,25.51
2022-08-25T20:40:25.286Z,25.51
2022-08-25T20:42:56.438Z,25.51
2022-08-25T20:45:26.180Z,25.50
2022-08-25T20:47:56.385Z,25.51
2022-08-25T20:50:26.044Z,25.51
2022-08-25T20:52:57.035Z,25.52
2022-08-25T20:55:28.343Z,25.53
2022-08-25T20:57:58.232Z,25.52
2022-08-25T21:00:27.840Z,25.54
2022-08-25T21:02:57.432Z,25.54
2022-08-25T21:05:27.131Z,25.55
2022-08-25T21:07:56.632Z,25.55
2022-08-25T21:10:26.573Z,25.57
2022-08-25T21:12:56.197Z,25.54
2022-08-25T21:15:26.014Z,25.52
2022-08-25T21:17:55.988Z,25.53
2022-08-25T21:20:25.690Z,25.54
2022-08-25T21:22:55.209Z,25.56
2022-08-25T21:25:26.311Z,25.58
2022-08-25T21:27:55.949Z,25.58
2022-08-25T21:30:27.583Z,25.58
2022-08-25T21:32:58.379Z,25.58
2022-08-25T21:35:28.036Z,25.61
2022-08-25T21:37:59.215Z,25.61
2022-08-25T21:40:28.887Z,25.61
2022-08-25T21:42:58.599Z,25.62
2022-08-25T21:45:28.629Z,25.62
2022-08-25T21:47:59.818Z,25.65
2022-08-25T21:50:29.525Z,25.65
2022-08-25T21:52:59.353Z,25.67
2022-08-25T21:55:28.961Z,25.68
2022-08-25T21:57:58.907Z,25.69
2022-08-25T22:00:28.633Z,25.69
2022-08-25T22:02:59.291Z,25.71
2022-08-25T22:05:29.497Z,25.59
2022-08-25T22:07:59.006Z,25.72
2022-08-25T22:10:28.819Z,25.74
2022-08-25T22:12:58.368Z,25.75
2022-08-25T22:15:28.159Z,25.76
2022-08-25T22:17:57.776Z,25.77
2022-08-25T22:20:27.652Z,25.77
2022-08-25T22:22:58.657Z,25.79
2022-08-25T22:25:29.754Z,25.79
2022-08-25T22:28:01.151Z,25.79
2022-08-25T22:30:31.499Z,25.79
2022-08-25T22:33:01.195Z,25.79
2022-08-25T22:35:33.328Z,25.79
2022-08-25T22:38:02.950Z,25.78
2022-08-25T22:40:36.311Z,25.80
2022-08-25T22:43:05.985Z,25.70
2022-08-25T22:45:37.261Z,25.70
2022-08-25T22:48:08.680Z,25.83
2022-08-25T22:50:39.106Z,25.84
2022-08-25T22:53:10.022Z,25.83
2022-08-25T22:55:42.687Z,25.85
2022-08-25T22:58:15.846Z,25.85
2022-08-25T23:00:45.448Z,25.86
2022-08-25T23:03:16.428Z,25.86
2022-08-25T23:05:46.444Z,25.88
2022-08-25T23:08:16.162Z,25.89
2022-08-25T23:10:52.630Z,25.90
2022-08-25T23:13:34.172Z,25.89
2022-08-25T23:15:55.024Z,25.89
2022-08-25T23:18:24.636Z,25.91
2022-08-25T23:21:13.086Z,25.91
2022-08-25T23:23:44.345Z,25.91
2022-08-25T23:26:13.985Z,25.91
2022-08-25T23:28:44.810Z,25.92
2022-08-25T23:31:14.623Z,25.93
2022-08-25T23:33:46.278Z,25.93
2022-08-25T23:36:16.752Z,25.94
2022-08-25T23:38:51.636Z,25.93
2022-08-25T23:41:25.327Z,25.94
2022-08-25T23:43:54.436Z,25.93
2022-08-25T23:46:25.329Z,25.95
2022-08-25T23:48:56.269Z,25.96
2022-08-25T23:51:28.083Z,25.95
2022-08-25T23:53:59.286Z,25.95
2022-08-25T23:56:32.080Z,25.95
2022-08-25T23:59:02.247Z,25.95
